Time;durP1;ratioP1;P1;durP2;ratioP2;P2;SDS_P1;SDS_P2;PMS_P1;PMS_P2;Temp;Humidity;BMP_temperature;BMP_pressure;BME280_temperature;BME280_humidity;BME280_pressure;Samples;Min_cycle;Max_cycle;Signal;HPM_P1;HPM_P2
2022/09/03 00:02:24;;;;;;;5.53;2.22;;;;;;;;;;6149536;28;20024;-86
2022/09/03 00:05:38;;;;;;;4.32;2.30;;;;;;;;;;6148027;28;20019;-86
2022/09/03 00:08:43;;;;;;;5.80;2.03;;;;;;;;;;6148387;28;20043;-86
2022/09/03 00:12:07;;;;;;;7.68;3.13;;;;;;;;;;6149121;28;20027;-86
2022/09/03 00:15:18;;;;;;;5.22;2.10;;;;;;;;;;6132209;29;20475;-86
2022/09/03 00:18:21;;;;;;;10.87;2.33;;;;;;;;;;6145400;29;20031;-86
2022/09/03 00:21:42;;;;;;;4.55;2.05;;;;;;;;;;6143428;28;20023;-86
2022/09/03 00:24:42;;;;;;;3.92;2.03;;;;;;;;;;6133371;29;20099;-86
2022/09/03 00:27:44;;;;;;;4.72;2.17;;;;;;;;;;6130712;28;20015;-86
2022/09/03 00:30:46;;;;;;;6.05;2.03;;;;;;;;;;6131849;29;20154;-86
2022/09/03 00:33:46;;;;;;;;;;;;;;;;;;6143237;28;20387;-86
2022/09/03 00:36:46;;;;;;;3.72;2.30;;;;;;;;;;6129350;28;20293;-85
2022/09/03 00:39:46;;;;;;;3.47;2.10;;;;;;;;;;6147325;28;20054;-86
2022/09/03 00:42:54;;;;;;;5.18;2.10;;;;;;;;;;6148067;29;20019;-86
2022/09/03 00:45:55;;;;;;;4.75;2.30;;;;;;;;;;6147985;28;20038;-86
2022/09/03 00:48:58;;;;;;;4.47;2.33;;;;;;;;;;6128865;29;20019;-86
2022/09/03 00:52:10;;;;;;;4.75;2.63;;;;;;;;;;6140722;28;20054;-86
2022/09/03 00:55:22;;;;;;;4.70;2.60;;;;;;;;;;6128877;28;20026;-86
2022/09/03 00:58:31;;;;;;;5.03;2.28;;;;;;;;;;6121323;28;20487;-86
2022/09/03 01:01:39;;;;;;;8.88;2.90;;;;;;;;;;6127991;29;20035;-86
2022/09/03 01:04:49;;;;;;;4.97;1.98;;;;;;;;;;6126416;29;20070;-86
2022/09/03 01:07:57;;;;;;;6.57;2.63;;;;;;;;;;6144821;28;20604;-85
2022/09/03 01:10:57;;;;;;;7.45;2.15;;;;;;;;;;6147059;28;20074;-86
2022/09/03 01:14:01;;;;;;;7.50;2.15;;;;;;;;;;6147321;28;20019;-86
2022/09/03 01:17:11;;;;;;;4.32;2.35;;;;;;;;;;6129059;28;20058;-86
2022/09/03 01:20:15;;;;;;;8.52;1.92;;;;;;;;;;6121248;29;20046;-87
2022/09/03 01:23:23;;;;;;;6.22;2.55;;;;;;;;;;6130740;29;20152;-86
2022/09/03 01:26:29;;;;;;;5.78;2.33;;;;;;;;;;6145723;28;20078;-86
2022/09/03 01:29:42;;;;;;;3.67;2.03;;;;;;;;;;6148134;28;20055;-86
2022/09/03 01:33:01;;;;;;;2.97;2.13;;;;;;;;;;6145276;28;20082;-86
2022/09/03 01:36:20;;;;;;;6.95;2.58;;;;;;;;;;6126578;29;20050;-86
2022/09/03 01:39:46;;;;;;;6.38;2.75;;;;;;;;;;6146956;28;20482;-86
2022/09/03 01:43:19;;;;;;;4.35;2.30;;;;;;;;;;6126918;29;20031;-86
2022/09/03 01:46:29;;;;;;;6.68;2.40;;;;;;;;;;6103100;29;20027;-86
2022/09/03 01:49:50;;;;;;;6.45;3.00;;;;;;;;;;6142825;28;20020;-86
2022/09/03 01:52:53;;;;;;;6.93;2.00;;;;;;;;;;6129271;29;20019;-86
2022/09/03 01:55:56;;;;;;;4.22;2.00;;;;;;;;;;6151649;29;20023;-86
2022/09/03 01:59:18;;;;;;;5.72;3.17;;;;;;;;;;6135340;29;20027;-86
2022/09/03 02:02:20;;;;;;;5.40;2.33;;;;;;;;;;6131909;29;20070;-85
2022/09/03 02:05:27;;;;;;;5.43;2.35;;;;;;;;;;6137660;28;20059;-85
2022/09/03 02:08:28;;;;;;;4.53;2.33;;;;;;;;;;6145615;28;20048;-85
2022/09/03 02:11:28;;;;;;;5.63;2.10;;;;;;;;;;6149720;28;20047;-85
2022/09/03 02:14:29;;;;;;;6.18;2.17;;;;;;;;;;6151538;28;20034;-85
2022/09/03 02:17:31;;;;;;;4.33;2.10;;;;;;;;;;6150860;28;20027;-85
2022/09/03 02:20:31;;;;;;;3.75;1.80;;;;;;;;;;6126658;29;20042;-85
2022/09/03 02:23:32;;;;;;;4.10;2.45;;;;;;;;;;6134024;28;20027;-86
2022/09/03 02:26:32;;;;;;;4.43;2.17;;;;;;;;;;6147141;28;20016;-85
2022/09/03 02:29:33;;;;;;;5.33;2.37;;;;;;;;;;6126861;29;20447;-85
2022/09/03 02:32:33;;;;;;;3.15;1.60;;;;;;;;;;6133633;29;20058;-85
2022/09/03 02:35:34;;;;;;;5.95;2.70;;;;;;;;;;6145060;28;20038;-85
2022/09/03 02:38:34;;;;;;;4.25;2.17;;;;;;;;;;6149342;28;20030;-85
2022/09/03 02:41:34;;;;;;;8.20;2.77;;;;;;;;;;6151154;29;20375;-85
2022/09/03 02:44:37;;;;;;;5.03;2.17;;;;;;;;;;6133717;29;20027;-85
2022/09/03 02:47:39;;;;;;;6.57;2.42;;;;;;;;;;6133100;29;20027;-85
2022/09/03 02:50:39;;;;;;;;;;;;;;;;;;6148836;28;20019;-85
2022/09/03 02:53:40;;;;;;;3.85;1.90;;;;;;;;;;6133065;29;19906;-85
2022/09/03 02:56:40;;;;;;;6.50;2.70;;;;;;;;;;6133401;29;20387;-85
2022/09/03 02:59:43;;;;;;;7.40;2.28;;;;;;;;;;6149590;29;20142;-85
2022/09/03 03:02:43;;;;;;;8.77;2.60;;;;;;;;;;6131138;28;20110;-86
2022/09/03 03:05:45;;;;;;;4.45;2.60;;;;;;;;;;6131888;29;20042;-85
2022/09/03 03:08:46;;;;;;;5.55;2.50;;;;;;;;;;6149878;28;20039;-85
2022/09/03 03:11:48;;;;;;;4.47;2.47;;;;;;;;;;6132486;29;20086;-85
2022/09/03 03:14:49;;;;;;;5.40;2.50;;;;;;;;;;6148802;28;20109;-85
2022/09/03 03:17:49;;;;;;;5.73;2.17;;;;;;;;;;6149327;28;20034;-85
2022/09/03 03:20:49;;;;;;;4.57;1.80;;;;;;;;;;6130409;28;20290;-85
2022/09/03 03:23:50;;;;;;;6.20;2.30;;;;;;;;;;6150682;29;20019;-85
2022/09/03 03:26:50;;;;;;;7.57;3.25;;;;;;;;;;6148060;29;20482;-85
2022/09/03 03:29:50;;;;;;;6.15;3.15;;;;;;;;;;6149665;28;20591;-85
2022/09/03 03:32:52;;;;;;;7.63;3.80;;;;;;;;;;6131373;29;20027;-85
2022/09/03 03:35:52;;;;;;;6.18;3.33;;;;;;;;;;6130456;29;20035;-85
2022/09/03 03:38:53;;;;;;;8.48;3.38;;;;;;;;;;6150136;28;20479;-85
2022/09/03 03:41:55;;;;;;;5.80;2.67;;;;;;;;;;6149720;28;20027;-85
2022/09/03 03:44:55;;;;;;;10.30;3.17;;;;;;;;;;6149574;28;20266;-85
2022/09/03 03:47:58;;;;;;;17.03;6.63;;;;;;;;;;6131465;28;20043;-86
2022/09/03 03:51:03;;;;;;;10.82;4.80;;;;;;;;;;6139818;29;20037;-85
2022/09/03 03:54:04;;;;;;;7.80;3.92;;;;;;;;;;6146295;28;20114;-85
2022/09/03 03:57:04;;;;;;;17.75;6.30;;;;;;;;;;6148107;28;20020;-85
2022/09/03 04:00:05;;;;;;;8.82;2.85;;;;;;;;;;6149838;28;20023;-85
2022/09/03 04:03:05;;;;;;;8.52;3.65;;;;;;;;;;6147727;28;20356;-85
2022/09/03 04:06:06;;;;;;;19.47;6.10;;;;;;;;;;6143049;28;20117;-85
2022/09/03 04:09:06;;;;;;;11.40;5.17;;;;;;;;;;6134292;28;20054;-85
2022/09/03 04:12:07;;;;;;;10.82;4.00;;;;;;;;;;6148787;28;20701;-86
2022/09/03 04:15:07;;;;;;;5.30;3.27;;;;;;;;;;6146559;28;20019;-85
2022/09/03 04:18:08;;;;;;;6.95;3.15;;;;;;;;;;6147259;28;20674;-87
2022/09/03 04:21:13;;;;;;;8.90;3.33;;;;;;;;;;6127095;28;20079;-86
2022/09/03 04:24:13;;;;;;;8.32;3.95;;;;;;;;;;6131139;28;20313;-86
2022/09/03 04:27:13;;;;;;;5.38;2.75;;;;;;;;;;6148359;29;20491;-86
2022/09/03 04:30:14;;;;;;;5.70;3.17;;;;;;;;;;6128960;29;20026;-86
2022/09/03 04:33:14;;;;;;;10.68;4.03;;;;;;;;;;6144925;28;20111;-86
2022/09/03 04:36:19;;;;;;;9.47;3.23;;;;;;;;;;6146120;28;20029;-86
2022/09/03 04:39:19;;;;;;;7.25;3.22;;;;;;;;;;6130822;28;20026;-86
2022/09/03 04:42:19;;;;;;;12.50;4.88;;;;;;;;;;6132236;29;20015;-86
2022/09/03 04:45:19;;;;;;;5.73;3.67;;;;;;;;;;6130695;29;20505;-86
2022/09/03 04:48:19;;;;;;;10.40;3.67;;;;;;;;;;6147812;28;20522;-86
2022/09/03 04:51:22;;;;;;;5.80;3.40;;;;;;;;;;6146088;29;20259;-86
2022/09/03 04:54:22;;;;;;;6.35;3.00;;;;;;;;;;6130628;29;20471;-86
2022/09/03 04:57:22;;;;;;;8.63;2.77;;;;;;;;;;6130451;29;20043;-86
2022/09/03 05:00:22;;;;;;;9.87;3.63;;;;;;;;;;6147237;28;20034;-86
2022/09/03 05:03:22;;;;;;;7.10;2.95;;;;;;;;;;6148128;28;20054;-86
2022/09/03 05:06:24;;;;;;;4.37;2.80;;;;;;;;;;6125781;29;20023;-86
2022/09/03 05:09:24;;;;;;;4.93;2.58;;;;;;;;;;6107389;29;20059;-86
2022/09/03 05:12:25;;;;;;;7.77;3.47;;;;;;;;;;6097077;29;20520;-86
2022/09/03 05:15:25;;;;;;;5.57;2.93;;;;;;;;;;6089657;29;20008;-86
2022/09/03 05:18:26;;;;;;;5.73;3.83;;;;;;;;;;6087871;29;20020;-86
2022/09/03 05:21:27;;;;;;;6.73;3.17;;;;;;;;;;6094661;29;20367;-86
2022/09/03 05:24:27;;;;;;;4.97;2.42;;;;;;;;;;6097777;29;20020;-86
2022/09/03 05:27:27;;;;;;;4.90;2.60;;;;;;;;;;6101701;29;20119;-86
2022/09/03 05:30:27;;;;;;;4.43;2.25;;;;;;;;;;6098430;29;20028;-86
2022/09/03 05:33:28;;;;;;;6.87;2.63;;;;;;;;;;6102939;29;20108;-86
2022/09/03 05:36:29;;;;;;;5.47;2.50;;;;;;;;;;6101706;29;20028;-86
2022/09/03 05:39:29;;;;;;;8.23;3.58;;;;;;;;;;6103339;29;20016;-86
2022/09/03 05:42:34;;;;;;;8.33;3.20;;;;;;;;;;6104256;29;20099;-86
2022/09/03 05:45:35;;;;;;;5.10;2.58;;;;;;;;;;6101168;29;20534;-86
2022/09/03 05:48:36;;;;;;;6.28;2.85;;;;;;;;;;6102882;29;20586;-87
2022/09/03 05:51:38;;;;;;;10.15;3.22;;;;;;;;;;6094919;29;20028;-86
2022/09/03 05:54:38;;;;;;;5.82;2.55;;;;;;;;;;6093397;29;20027;-86
2022/09/03 05:57:40;;;;;;;5.67;2.43;;;;;;;;;;6094111;29;21400;-86
2022/09/03 06:00:40;;;;;;;6.88;3.20;;;;;;;;;;6094996;29;20020;-86
2022/09/03 06:03:40;;;;;;;7.80;2.80;;;;;;;;;;6097361;29;20051;-87
2022/09/03 06:06:42;;;;;;;7.05;2.60;;;;;;;;;;6093132;29;20031;-86
2022/09/03 06:09:42;;;;;;;4.57;3.10;;;;;;;;;;6086243;29;20067;-86
2022/09/03 06:12:48;;;;;;;6.83;3.20;;;;;;;;;;6101655;29;20047;-86
2022/09/03 06:15:48;;;;;;;4.47;2.90;;;;;;;;;;6098752;29;20035;-87
2022/09/03 06:18:48;;;;;;;7.75;3.92;;;;;;;;;;6093163;29;20024;-88
2022/09/03 06:21:48;;;;;;;4.90;2.70;;;;;;;;;;6099368;29;20039;-87
2022/09/03 06:24:49;;;;;;;7.07;2.87;;;;;;;;;;6097901;29;20028;-86
2022/09/03 06:27:49;;;;;;;5.57;2.57;;;;;;;;;;6096110;29;20013;-87
2022/09/03 06:30:49;;;;;;;5.43;3.40;;;;;;;;;;6093912;29;20025;-86
2022/09/03 06:33:51;;;;;;;5.87;2.80;;;;;;;;;;6096893;29;20032;-86
2022/09/03 06:36:52;;;;;;;9.75;2.90;;;;;;;;;;6089436;29;20021;-86
2022/09/03 06:39:53;;;;;;;8.00;3.40;;;;;;;;;;6092989;29;20071;-86
2022/09/03 06:43:01;;;;;;;5.05;2.70;;;;;;;;;;6101610;29;20263;-86
2022/09/03 06:46:12;;;;;;;6.78;3.45;;;;;;;;;;6099426;29;20016;-87
2022/09/03 06:49:12;;;;;;;6.35;3.42;;;;;;;;;;6089552;29;20024;-87
2022/09/03 06:52:12;;;;;;;7.57;3.50;;;;;;;;;;6092383;29;20507;-87
2022/09/03 06:55:12;;;;;;;6.87;3.30;;;;;;;;;;6090159;29;20039;-86
2022/09/03 06:58:13;;;;;;;6.78;3.45;;;;;;;;;;6088469;29;20484;-86
2022/09/03 07:01:14;;;;;;;8.93;3.07;;;;;;;;;;6095215;29;20170;-86
2022/09/03 07:04:15;;;;;;;7.18;3.95;;;;;;;;;;6100541;29;20041;-86
2022/09/03 07:07:15;;;;;;;6.50;3.83;;;;;;;;;;6100984;29;20020;-86
2022/09/03 07:10:19;;;;;;;6.97;3.70;;;;;;;;;;6101551;29;20483;-86
2022/09/03 07:13:20;;;;;;;6.10;3.05;;;;;;;;;;6100662;29;20024;-86
2022/09/03 07:16:21;;;;;;;6.07;2.77;;;;;;;;;;6099355;29;20035;-86
2022/09/03 07:19:21;;;;;;;;;;;;;;;;;;6102348;29;20028;-86
2022/09/03 07:22:21;;;;;;;7.07;3.33;;;;;;;;;;6098390;29;19933;-87
2022/09/03 07:25:23;;;;;;;5.77;2.87;;;;;;;;;;6099045;29;20504;-87
2022/09/03 07:28:23;;;;;;;;;;;;;;;;;;6102244;29;20094;-87
2022/09/03 07:31:28;;;;;;;7.53;2.80;;;;;;;;;;6101900;29;19911;-87
2022/09/03 07:34:29;;;;;;;5.78;2.70;;;;;;;;;;6101269;29;20055;-87
2022/09/03 07:37:29;;;;;;;9.47;2.93;;;;;;;;;;6100668;29;20383;-87
2022/09/03 07:40:31;;;;;;;7.32;3.17;;;;;;;;;;6101039;29;20056;-87
2022/09/03 07:43:34;;;;;;;5.57;3.05;;;;;;;;;;6100490;29;20024;-88
2022/09/03 07:46:35;;;;;;;5.03;2.85;;;;;;;;;;6099951;29;20024;-87
2022/09/03 07:49:36;;;;;;;4.72;3.03;;;;;;;;;;6101850;29;20361;-87
2022/09/03 07:52:36;;;;;;;6.07;2.30;;;;;;;;;;6096378;29;20061;-87
2022/09/03 07:55:36;;;;;;;3.83;2.30;;;;;;;;;;6099276;29;20043;-87
2022/09/03 07:58:37;;;;;;;10.03;3.83;;;;;;;;;;6100718;29;20107;-87
2022/09/03 08:01:37;;;;;;;8.23;3.40;;;;;;;;;;6097807;29;20384;-87
2022/09/03 08:04:37;;;;;;;4.87;2.80;;;;;;;;;;6101098;29;20084;-87
2022/09/03 08:07:37;;;;;;;8.93;3.50;;;;;;;;;;6100194;29;20095;-86
2022/09/03 08:10:39;;;;;;;6.25;2.92;;;;;;;;;;6147696;28;20034;-87
2022/09/03 08:14:01;;;;;;;8.00;3.85;;;;;;;;;;6128536;28;20037;-87
2022/09/03 08:17:01;;;;;;;4.25;2.80;;;;;;;;;;6145757;28;20011;-87
2022/09/03 08:20:02;;;;;;;10.67;3.90;;;;;;;;;;6147907;29;20042;-87
2022/09/03 08:23:02;;;;;;;9.10;3.40;;;;;;;;;;6129345;29;20465;-87
2022/09/03 08:26:03;;;;;;;6.30;3.47;;;;;;;;;;6126616;29;20066;-87
2022/09/03 08:29:04;;;;;;;7.93;3.83;;;;;;;;;;6130409;29;20386;-87
2022/09/03 08:32:04;;;;;;;6.97;3.67;;;;;;;;;;6148646;29;20475;-87
2022/09/03 08:35:05;;;;;;;6.20;3.50;;;;;;;;;;6130907;29;20030;-87
2022/09/03 08:38:07;;;;;;;7.60;3.92;;;;;;;;;;6146412;28;20019;-87
2022/09/03 08:41:10;;;;;;;8.48;3.55;;;;;;;;;;6146863;29;20023;-87
2022/09/03 08:44:26;;;;;;;6.78;2.95;;;;;;;;;;6130665;29;20360;-87
2022/09/03 08:47:36;;;;;;;6.15;3.03;;;;;;;;;;6130552;29;20432;-86
2022/09/03 08:50:41;;;;;;;6.85;3.50;;;;;;;;;;6130016;29;20031;-86
2022/09/03 08:53:47;;;;;;;6.75;4.68;;;;;;;;;;6129137;29;20058;-87
2022/09/03 08:56:48;;;;;;;5.78;3.80;;;;;;;;;;6129443;28;20070;-86
2022/09/03 08:59:51;;;;;;;6.80;3.70;;;;;;;;;;6129328;28;20027;-87
2022/09/03 09:02:54;;;;;;;7.18;4.00;;;;;;;;;;6148252;29;20019;-86
2022/09/03 09:06:17;;;;;;;5.75;3.42;;;;;;;;;;6146542;29;20015;-87
2022/09/03 09:09:32;;;;;;;6.53;3.53;;;;;;;;;;6120711;28;20043;-86
2022/09/03 09:12:51;;;;;;;7.70;4.07;;;;;;;;;;6146327;28;20055;-86
2022/09/03 09:16:01;;;;;;;6.63;4.15;;;;;;;;;;6127773;29;20494;-86
2022/09/03 09:19:11;;;;;;;6.80;4.38;;;;;;;;;;6147448;29;20017;-87
2022/09/03 09:22:21;;;;;;;6.22;4.10;;;;;;;;;;6141674;28;20396;-86
2022/09/03 09:25:23;;;;;;;5.15;3.75;;;;;;;;;;6127157;29;20393;-87
2022/09/03 09:28:28;;;;;;;8.00;4.30;;;;;;;;;;6138267;29;20066;-87
2022/09/03 09:31:29;;;;;;;8.07;4.55;;;;;;;;;;6138749;28;20027;-88
2022/09/03 09:34:29;;;;;;;;;;;;;;;;;;6142523;29;20383;-87
2022/09/03 09:37:29;;;;;;;6.40;4.15;;;;;;;;;;6129870;29;19914;-87
2022/09/03 09:40:32;;;;;;;6.30;4.30;;;;;;;;;;6148022;28;20028;-87
2022/09/03 09:43:32;;;;;;;6.78;3.78;;;;;;;;;;6119995;29;20027;-87
2022/09/03 09:46:35;;;;;;;7.70;4.67;;;;;;;;;;6143119;28;20104;-87
2022/09/03 09:49:44;;;;;;;6.50;4.25;;;;;;;;;;6140795;29;20352;-87
2022/09/03 09:52:45;;;;;;;7.63;4.22;;;;;;;;;;6139972;29;20027;-85
2022/09/03 09:55:56;;;;;;;7.00;3.87;;;;;;;;;;6120520;29;20434;-87
2022/09/03 09:59:03;;;;;;;5.03;3.47;;;;;;;;;;6118160;29;20380;-87
2022/09/03 10:02:14;;;;;;;6.15;3.20;;;;;;;;;;6145062;28;20560;-87
2022/09/03 10:05:19;;;;;;;6.33;3.93;;;;;;;;;;6146143;28;20019;-87
2022/09/03 10:08:20;;;;;;;7.60;4.00;;;;;;;;;;6121436;29;20127;-86
2022/09/03 10:11:24;;;;;;;4.75;3.72;;;;;;;;;;6142155;28;20471;-86
2022/09/03 10:14:34;;;;;;;9.80;3.85;;;;;;;;;;6136001;29;20019;-87
2022/09/03 10:17:41;;;;;;;7.65;4.10;;;;;;;;;;6151217;28;20050;-86
2022/09/03 10:20:46;;;;;;;10.05;4.28;;;;;;;;;;6129972;29;20041;-87
2022/09/03 10:23:46;;;;;;;5.47;3.33;;;;;;;;;;6133657;29;20027;-86
2022/09/03 10:26:49;;;;;;;7.53;4.85;;;;;;;;;;6147320;28;20119;-87
2022/09/03 10:29:50;;;;;;;6.37;3.30;;;;;;;;;;6150215;28;20023;-86
2022/09/03 10:33:13;;;;;;;7.77;3.37;;;;;;;;;;6127918;28;20097;-86
2022/09/03 10:36:18;;;;;;;8.18;3.92;;;;;;;;;;6125170;29;20058;-86
2022/09/03 10:39:18;;;;;;;6.90;3.67;;;;;;;;;;6138398;29;20034;-87
2022/09/03 10:42:41;;;;;;;7.53;3.88;;;;;;;;;;6138801;29;20023;-84
2022/09/03 10:46:01;;;;;;;6.25;3.63;;;;;;;;;;6139460;29;20965;-84
2022/09/03 10:49:20;;;;;;;5.30;3.28;;;;;;;;;;6144592;29;20023;-85
2022/09/03 10:52:31;;;;;;;9.10;3.33;;;;;;;;;;6129648;29;20023;-85
2022/09/03 10:55:38;;;;;;;6.13;3.22;;;;;;;;;;6125736;29;20063;-86
2022/09/03 10:58:48;;;;;;;6.50;3.80;;;;;;;;;;6142820;29;20027;-86
2022/09/03 11:02:07;;;;;;;4.03;3.08;;;;;;;;;;6126211;29;20078;-86
2022/09/03 11:05:12;;;;;;;5.32;3.35;;;;;;;;;;6141441;28;20498;-86
2022/09/03 11:08:16;;;;;;;4.65;4.13;;;;;;;;;;6123335;29;20466;-86
2022/09/03 11:11:34;;;;;;;4.80;3.17;;;;;;;;;;6135255;28;20035;-85
2022/09/03 11:14:39;;;;;;;6.70;3.40;;;;;;;;;;6143455;29;20026;-85
2022/09/03 11:17:47;;;;;;;6.75;4.05;;;;;;;;;;6137114;29;20027;-86
2022/09/03 11:20:49;;;;;;;5.15;3.47;;;;;;;;;;6137283;28;20034;-85
2022/09/03 11:23:52;;;;;;;4.82;3.20;;;;;;;;;;6114024;29;20019;-85
2022/09/03 11:27:18;;;;;;;9.85;3.67;;;;;;;;;;6136847;29;20132;-86
2022/09/03 11:30:23;;;;;;;5.95;3.10;;;;;;;;;;6141998;29;20030;-86
2022/09/03 11:33:24;;;;;;;4.53;3.28;;;;;;;;;;6123431;29;20062;-86
2022/09/03 11:36:27;;;;;;;7.57;4.05;;;;;;;;;;6118694;29;20019;-86
2022/09/03 11:39:31;;;;;;;6.10;4.10;;;;;;;;;;6119539;29;20471;-86
2022/09/03 11:42:35;;;;;;;4.93;3.60;;;;;;;;;;6123533;29;20703;-86
2022/09/03 11:45:36;;;;;;;8.20;3.38;;;;;;;;;;6136062;29;20360;-86
2022/09/03 11:48:37;;;;;;;5.32;3.78;;;;;;;;;;6122679;29;20019;-86
2022/09/03 11:51:38;;;;;;;7.10;3.70;;;;;;;;;;6139993;29;20090;-86
2022/09/03 11:54:43;;;;;;;3.63;2.80;;;;;;;;;;6133938;29;20027;-85
2022/09/03 11:57:43;;;;;;;5.45;3.10;;;;;;;;;;6135610;29;20546;-85
2022/09/03 12:00:44;;;;;;;5.37;3.43;;;;;;;;;;6139819;29;20024;-86
2022/09/03 12:03:50;;;;;;;5.57;3.30;;;;;;;;;;6124792;29;20166;-86
2022/09/03 12:07:01;;;;;;;7.35;3.55;;;;;;;;;;6132140;29;20567;-86
2022/09/03 12:10:10;;;;;;;7.25;3.50;;;;;;;;;;6136381;28;20044;-86
2022/09/03 12:13:29;;;;;;;8.82;3.47;;;;;;;;;;6127081;29;20479;-86
2022/09/03 12:16:40;;;;;;;6.55;3.58;;;;;;;;;;6122048;29;20034;-86
2022/09/03 12:19:40;;;;;;;;;;;;;;;;;;6128065;29;20023;-86
2022/09/03 12:22:41;;;;;;;5.80;3.22;;;;;;;;;;6146372;28;19937;-86
2022/09/03 12:25:44;;;;;;;5.93;3.03;;;;;;;;;;6146666;28;20034;-87
2022/09/03 12:28:49;;;;;;;5.22;4.35;;;;;;;;;;6147021;28;20427;-87
2022/09/03 12:31:50;;;;;;;8.13;4.13;;;;;;;;;;6130064;29;20027;-86
2022/09/03 12:34:51;;;;;;;6.50;3.47;;;;;;;;;;6131597;29;20016;-86
2022/09/03 12:37:51;;;;;;;4.33;2.87;;;;;;;;;;6141508;29;20102;-86
2022/09/03 12:40:52;;;;;;;6.03;4.10;;;;;;;;;;6136239;28;20023;-87
2022/09/03 12:43:57;;;;;;;6.20;3.53;;;;;;;;;;6128558;28;20019;-86
2022/09/03 12:47:17;;;;;;;4.82;3.20;;;;;;;;;;6137884;28;20035;-86
2022/09/03 12:50:22;;;;;;;6.38;3.45;;;;;;;;;;6124276;29;20023;-87
2022/09/03 12:53:28;;;;;;;5.88;3.50;;;;;;;;;;6119142;29;20473;-86
2022/09/03 12:56:31;;;;;;;4.45;3.13;;;;;;;;;;6120629;28;20578;-85
2022/09/03 12:59:34;;;;;;;4.18;3.03;;;;;;;;;;6124558;29;20031;-86
2022/09/03 13:02:40;;;;;;;4.60;3.65;;;;;;;;;;6136703;28;20019;-86
2022/09/03 13:05:46;;;;;;;6.50;2.90;;;;;;;;;;6123967;29;20027;-86
2022/09/03 13:08:51;;;;;;;5.28;2.90;;;;;;;;;;6128008;28;20046;-86
2022/09/03 13:11:54;;;;;;;6.10;3.83;;;;;;;;;;6137776;29;20023;-86
2022/09/03 13:14:54;;;;;;;6.25;2.83;;;;;;;;;;6121348;28;20054;-87
2022/09/03 13:17:58;;;;;;;4.70;3.03;;;;;;;;;;6118999;29;20082;-87
2022/09/03 13:21:10;;;;;;;5.63;3.20;;;;;;;;;;6141133;29;20016;-87
2022/09/03 13:24:30;;;;;;;4.75;3.00;;;;;;;;;;6122367;28;20023;-87
2022/09/03 13:27:30;;;;;;;4.47;2.83;;;;;;;;;;6145486;29;20482;-87
2022/09/03 13:30:41;;;;;;;4.90;3.22;;;;;;;;;;6146541;28;20549;-87
2022/09/03 13:33:48;;;;;;;4.88;2.83;;;;;;;;;;6115376;29;20399;-87
2022/09/03 13:36:53;;;;;;;6.80;2.92;;;;;;;;;;6145079;29;20011;-87
2022/09/03 13:39:55;;;;;;;6.70;2.67;;;;;;;;;;6137528;28;20050;-87
2022/09/03 13:43:15;;;;;;;6.07;3.20;;;;;;;;;;6145780;28;20019;-87
2022/09/03 13:46:19;;;;;;;6.15;3.38;;;;;;;;;;6131154;28;20035;-87
2022/09/03 13:53:13;;;;;;;4.35;3.33;;;;;;;;;;6067458;29;20382;-86
2022/09/03 13:56:16;;;;;;;4.93;3.40;;;;;;;;;;6066086;29;20092;-86
2022/09/03 13:59:35;;;;;;;4.82;2.92;;;;;;;;;;6131590;29;20026;-87
2022/09/03 14:02:51;;;;;;;5.88;3.17;;;;;;;;;;6134410;29;20038;-86
2022/09/03 14:06:10;;;;;;;5.85;3.42;;;;;;;;;;6133839;29;20371;-86
2022/09/03 14:09:18;;;;;;;9.27;3.47;;;;;;;;;;6147785;28;20051;-86
2022/09/03 14:12:41;;;;;;;5.75;2.95;;;;;;;;;;6134284;28;20019;-86
2022/09/03 14:15:47;;;;;;;6.00;3.33;;;;;;;;;;6133040;28;20078;-86
2022/09/03 14:18:50;;;;;;;5.35;3.20;;;;;;;;;;6134202;29;20049;-86
2022/09/03 14:21:55;;;;;;;7.65;4.10;;;;;;;;;;6150721;28;20026;-86
2022/09/03 14:25:00;;;;;;;5.97;2.97;;;;;;;;;;6131419;28;20034;-87
2022/09/03 14:28:19;;;;;;;5.40;2.92;;;;;;;;;;6149941;28;20151;-86
2022/09/03 14:31:25;;;;;;;6.82;3.35;;;;;;;;;;6148642;28;20054;-86
2022/09/03 14:34:25;;;;;;;6.57;3.42;;;;;;;;;;6132638;28;20023;-86
2022/09/03 14:37:26;;;;;;;5.88;3.00;;;;;;;;;;6132303;29;20026;-86
2022/09/03 14:40:29;;;;;;;8.48;3.17;;;;;;;;;;6118785;29;20031;-86
2022/09/03 14:43:48;;;;;;;4.82;3.05;;;;;;;;;;6149944;28;20007;-86
2022/09/03 14:47:20;;;;;;;5.28;2.85;;;;;;;;;;6145078;28;20023;-86
2022/09/03 14:50:36;;;;;;;4.10;2.70;;;;;;;;;;6098391;28;20043;-86
2022/09/03 14:53:39;;;;;;;5.38;2.95;;;;;;;;;;6144788;28;20027;-86
2022/09/03 14:56:53;;;;;;;5.78;3.28;;;;;;;;;;6148173;28;20030;-86
2022/09/03 15:00:00;;;;;;;4.38;3.30;;;;;;;;;;6126415;29;20058;-86
2022/09/03 15:03:07;;;;;;;4.45;3.20;;;;;;;;;;6120133;29;20036;-86
2022/09/03 15:06:22;;;;;;;7.95;3.95;;;;;;;;;;6140894;28;20020;-86
2022/09/03 15:09:31;;;;;;;5.53;3.30;;;;;;;;;;6131868;28;20039;-86
2022/09/03 15:12:41;;;;;;;7.72;4.20;;;;;;;;;;6131648;28;20022;-86
2022/09/03 15:15:41;;;;;;;3.67;3.10;;;;;;;;;;6145001;28;20019;-86
2022/09/03 15:18:51;;;;;;;4.33;3.50;;;;;;;;;;6147477;29;20379;-86
2022/09/03 15:21:51;;;;;;;4.05;3.17;;;;;;;;;;6148504;29;20074;-86
2022/09/03 15:24:59;;;;;;;5.72;3.53;;;;;;;;;;6144646;29;20023;-86
2022/09/03 15:28:18;;;;;;;4.22;3.38;;;;;;;;;;6122280;29;20102;-86
2022/09/03 15:31:28;;;;;;;5.78;3.53;;;;;;;;;;6141129;29;20142;-86
2022/09/03 15:34:41;;;;;;;4.50;3.65;;;;;;;;;;6140021;29;20430;-86
2022/09/03 15:37:44;;;;;;;5.75;3.58;;;;;;;;;;6131347;28;20039;-87
2022/09/03 15:40:44;;;;;;;4.60;3.38;;;;;;;;;;6136135;28;20031;-86
2022/09/03 15:43:47;;;;;;;7.22;3.55;;;;;;;;;;6131477;28;20094;-85
2022/09/03 15:47:07;;;;;;;3.88;2.83;;;;;;;;;;6118110;29;20026;-85
2022/09/03 15:50:35;;;;;;;5.68;3.53;;;;;;;;;;6135213;29;20063;-85
2022/09/03 15:53:38;;;;;;;5.70;3.20;;;;;;;;;;6129210;28;20039;-84
2022/09/03 15:56:44;;;;;;;6.00;4.03;;;;;;;;;;6126972;29;20031;-84
2022/09/03 15:59:47;;;;;;;4.72;3.35;;;;;;;;;;6141896;28;20027;-84
2022/09/03 16:03:08;;;;;;;6.75;3.30;;;;;;;;;;6139622;29;20016;-84
2022/09/03 16:06:17;;;;;;;6.18;4.13;;;;;;;;;;6128897;28;20019;-85
2022/09/03 16:09:23;;;;;;;5.88;3.28;;;;;;;;;;6123503;28;20051;-84
2022/09/03 16:12:33;;;;;;;6.85;3.55;;;;;;;;;;6141170;29;20027;-84
2022/09/03 16:15:42;;;;;;;6.07;3.80;;;;;;;;;;6140591;29;20064;-85
2022/09/03 16:18:45;;;;;;;9.23;6.15;;;;;;;;;;6136662;29;20055;-85
2022/09/03 16:21:50;;;;;;;5.95;4.18;;;;;;;;;;6139579;29;20016;-85
2022/09/03 16:25:08;;;;;;;10.52;4.30;;;;;;;;;;6135354;29;20015;-85
2022/09/03 16:28:12;;;;;;;8.02;3.72;;;;;;;;;;6133996;29;20970;-85
2022/09/03 16:31:27;;;;;;;6.45;3.28;;;;;;;;;;6125360;29;20034;-85
2022/09/03 16:34:47;;;;;;;6.30;3.75;;;;;;;;;;6123527;29;20055;-85
2022/09/03 16:37:57;;;;;;;5.70;3.47;;;;;;;;;;6143608;29;20023;-85
2022/09/03 16:40:57;;;;;;;5.43;3.55;;;;;;;;;;6141521;29;20498;-85
2022/09/03 16:44:16;;;;;;;6.03;3.67;;;;;;;;;;6139118;29;20650;-85
2022/09/03 16:47:19;;;;;;;4.35;3.40;;;;;;;;;;6137343;29;20074;-85
2022/09/03 16:50:26;;;;;;;5.25;3.60;;;;;;;;;;6140857;29;20032;-85
2022/09/03 16:53:38;;;;;;;5.10;3.47;;;;;;;;;;6139387;29;20758;-86
2022/09/03 16:56:57;;;;;;;6.07;3.60;;;;;;;;;;6126881;29;20023;-85
2022/09/03 17:00:08;;;;;;;4.68;3.28;;;;;;;;;;6135836;28;20114;-86
2022/09/03 17:03:21;;;;;;;5.03;3.90;;;;;;;;;;6125579;29;20027;-86
2022/09/03 17:06:24;;;;;;;6.28;3.67;;;;;;;;;;6133551;28;20676;-86
2022/09/03 17:09:35;;;;;;;7.10;4.10;;;;;;;;;;6136342;28;20130;-86
2022/09/03 17:12:38;;;;;;;5.55;3.60;;;;;;;;;;6128814;29;20054;-86
2022/09/03 17:15:48;;;;;;;10.00;4.68;;;;;;;;;;6127840;28;20115;-86
2022/09/03 17:19:03;;;;;;;5.45;3.78;;;;;;;;;;6146273;28;20027;-86
2022/09/03 17:22:20;;;;;;;5.70;3.70;;;;;;;;;;6145480;28;20399;-85
2022/09/03 17:25:33;;;;;;;6.82;4.22;;;;;;;;;;6139205;28;20074;-85
2022/09/03 17:28:51;;;;;;;7.72;4.47;;;;;;;;;;6127449;29;20035;-85
2022/09/03 17:32:15;;;;;;;9.13;4.03;;;;;;;;;;6139444;28;20101;-86
2022/09/03 17:35:15;;;;;;;6.93;4.28;;;;;;;;;;6115937;29;20070;-86
2022/09/03 17:38:18;;;;;;;6.93;4.00;;;;;;;;;;6138820;28;20031;-85
2022/09/03 17:41:31;;;;;;;7.35;4.97;;;;;;;;;;6149862;28;20078;-86
2022/09/03 17:44:46;;;;;;;6.72;4.10;;;;;;;;;;6144924;28;20028;-87
2022/09/03 17:48:10;;;;;;;7.93;4.22;;;;;;;;;;6136696;28;20031;-85
2022/09/03 17:51:31;;;;;;;6.53;4.15;;;;;;;;;;6108548;28;20043;-85
2022/09/03 17:54:39;;;;;;;9.13;4.78;;;;;;;;;;6128283;29;20053;-86
2022/09/03 17:57:43;;;;;;;7.28;4.95;;;;;;;;;;6142161;29;20027;-85
2022/09/03 18:00:50;;;;;;;6.68;4.43;;;;;;;;;;6118117;29;20118;-85
2022/09/03 18:03:56;;;;;;;8.52;5.30;;;;;;;;;;6136811;28;20074;-85
2022/09/03 18:07:04;;;;;;;10.60;5.68;;;;;;;;;;6125992;28;20023;-87
2022/09/03 18:10:20;;;;;;;12.63;4.90;;;;;;;;;;6118470;29;20840;-86
2022/09/03 18:13:23;;;;;;;10.52;5.57;;;;;;;;;;6117360;29;20040;-86
2022/09/03 18:16:28;;;;;;;8.02;5.00;;;;;;;;;;6114300;29;20134;-85
2022/09/03 20:12:05;;;;;;;12.10;6.80;;;;;;;;;;6145859;29;20056;-87
2022/09/03 20:15:07;;;;;;;13.48;7.50;;;;;;;;;;6132162;28;20031;-87
2022/09/03 20:18:08;;;;;;;15.55;7.45;;;;;;;;;;6128998;29;20023;-86
2022/09/03 20:21:15;;;;;;;13.27;8.13;;;;;;;;;;6129085;29;20534;-86
2022/09/03 20:24:38;;;;;;;17.00;8.23;;;;;;;;;;6126083;29;20050;-86
2022/09/03 20:27:45;;;;;;;17.85;7.85;;;;;;;;;;6146554;28;20356;-86
2022/09/03 20:30:49;;;;;;;14.13;8.57;;;;;;;;;;6149432;28;20031;-86